Terminal Aerodrome Forecast
Issued by NWS Boston, MA

Home | Current Version | Previous Version | Text Only | Print | Product List | Glossary On
Versions: 1 2 3 4 5 6 7 8 9 10 11 12 13 14 15 16 17 18 19 20 21 22
000
FTUS41 KBOX 041140
TAFPVD
TAF
KPVD 041140Z 0412/0512 33005KT P6SM BKN045
     FM041400 32007KT P6SM SCT050
     FM041600 30006KT P6SM SCT120
     FM050200 VRB03KT P6SM FEW250
     FM050800 00000KT P6SM VCSH BKN120=

USA.gov is the U.S. government's official web portal to all federal, state and local government web resources and services.